<?xml version="1.0" encoding="UTF-8" standalone="no" ?>
<gpx xmlns="http://www.topografix.com/GPX/1/1" xmlns:xsi="http://www.w3.org/2001/XMLSchema-instance" xsi:schemaLocation="http://www.topografix.com/GPX/1/1 http://www.topografix.com/GPX/1/1/gpx.xsd" version="1.1" creator="VisuGPX - https://www.visugpx.com">
  <metadata>
    <name>Le Canyon des Gueulards (Drôme)</name>
    <desc><![CDATA[Randonnée peu difficile au départ dans les Gorges d'Omblèze]]></desc>
  </metadata>
  <trk>
    <name><![CDATA[Le Canyon des Gueulards - PD-]]></name>
    <trkseg>
      <trkpt lat="44.8383" lon="5.18783">
        <ele>591</ele>
        <time>2020-04-24T19:38:46.01Z</time>
      </trkpt>
      <trkpt lat="44.83844" lon="5.18865">
        <ele>627</ele>
        <time>2020-04-24T19:39:56.05Z</time>
      </trkpt>
      <trkpt lat="44.83866" lon="5.18894">
        <ele>628</ele>
        <time>2020-04-24T19:40:31.06Z</time>
      </trkpt>
      <trkpt lat="44.83883" lon="5.18896">
        <ele>626</ele>
        <time>2020-04-24T19:40:51.30Z</time>
      </trkpt>
      <trkpt lat="44.83906" lon="5.18887">
        <ele>621</ele>
        <time>2020-04-24T19:41:29.36Z</time>
      </trkpt>
      <trkpt lat="44.8395" lon="5.18887">
        <ele>610</ele>
        <time>2020-04-24T19:42:23.44Z</time>
      </trkpt>
      <trkpt lat="44.84011" lon="5.18939">
        <ele>605</ele>
        <time>2020-04-24T19:43:43.28Z</time>
      </trkpt>
      <trkpt lat="44.84031" lon="5.18944">
        <ele>606</ele>
        <time>2020-04-24T19:44:05.34Z</time>
      </trkpt>
      <trkpt lat="44.84073" lon="5.18937">
        <ele>609</ele>
        <time>2020-04-24T19:45:00.01Z</time>
      </trkpt>
      <trkpt lat="44.84122" lon="5.18897">
        <ele>614</ele>
        <time>2020-04-24T19:46:10.76Z</time>
      </trkpt>
      <trkpt lat="44.84158" lon="5.18864">
        <ele>616</ele>
        <time>2020-04-24T19:47:02.69Z</time>
      </trkpt>
      <trkpt lat="44.84173" lon="5.18857">
        <ele>617</ele>
        <time>2020-04-24T19:47:21.77Z</time>
      </trkpt>
      <trkpt lat="44.84155" lon="5.18838">
        <ele>618</ele>
        <time>2020-04-24T19:47:48.63Z</time>
      </trkpt>
      <trkpt lat="44.84176" lon="5.18809">
        <ele>619</ele>
        <time>2020-04-24T19:48:23.97Z</time>
      </trkpt>
      <trkpt lat="44.84203" lon="5.18801">
        <ele>620</ele>
        <time>2020-04-24T19:48:55.91Z</time>
      </trkpt>
      <trkpt lat="44.84226" lon="5.18817">
        <ele>621</ele>
        <time>2020-04-24T19:49:28.28Z</time>
      </trkpt>
      <trkpt lat="44.84218" lon="5.18861">
        <ele>624</ele>
        <time>2020-04-24T19:50:10.21Z</time>
      </trkpt>
      <trkpt lat="44.84232" lon="5.18872">
        <ele>625</ele>
        <time>2020-04-24T19:50:30.51Z</time>
      </trkpt>
      <trkpt lat="44.84255" lon="5.18873">
        <ele>627</ele>
        <time>2020-04-24T19:51:03.32Z</time>
      </trkpt>
      <trkpt lat="44.84365" lon="5.18809">
        <ele>642</ele>
        <time>2020-04-24T19:54:01.09Z</time>
      </trkpt>
      <trkpt lat="44.84422" lon="5.18798">
        <ele>650</ele>
        <time>2020-04-24T19:55:27.74Z</time>
      </trkpt>
      <trkpt lat="44.8446" lon="5.18806">
        <ele>655</ele>
        <time>2020-04-24T19:56:23.94Z</time>
      </trkpt>
      <trkpt lat="44.84476" lon="5.18835">
        <ele>658</ele>
        <time>2020-04-24T19:56:56.22Z</time>
      </trkpt>
      <trkpt lat="44.84514" lon="5.18851">
        <ele>659</ele>
        <time>2020-04-24T19:57:41.35Z</time>
      </trkpt>
      <trkpt lat="44.84541" lon="5.18844">
        <ele>659</ele>
        <time>2020-04-24T19:58:12.15Z</time>
      </trkpt>
      <trkpt lat="44.84594" lon="5.18868">
        <ele>657</ele>
        <time>2020-04-24T19:59:13.64Z</time>
      </trkpt>
      <trkpt lat="44.84627" lon="5.1887">
        <ele>656</ele>
        <time>2020-04-24T19:59:50.73Z</time>
      </trkpt>
      <trkpt lat="44.84672" lon="5.18843">
        <ele>657</ele>
        <time>2020-04-24T20:00:48.33Z</time>
      </trkpt>
      <trkpt lat="44.84703" lon="5.18839">
        <ele>659</ele>
        <time>2020-04-24T20:01:28.76Z</time>
      </trkpt>
      <trkpt lat="44.84742" lon="5.18855">
        <ele>664</ele>
        <time>2020-04-24T20:02:35.93Z</time>
      </trkpt>
      <trkpt lat="44.84802" lon="5.18843">
        <ele>675</ele>
        <time>2020-04-24T20:04:21.30Z</time>
      </trkpt>
      <trkpt lat="44.84823" lon="5.18826">
        <ele>679</ele>
        <time>2020-04-24T20:05:05.86Z</time>
      </trkpt>
      <trkpt lat="44.84888" lon="5.18805">
        <ele>692</ele>
        <time>2020-04-24T20:07:02.03Z</time>
      </trkpt>
      <trkpt lat="44.84976" lon="5.18767">
        <ele>707</ele>
        <time>2020-04-24T20:09:35.83Z</time>
      </trkpt>
      <trkpt lat="44.84992" lon="5.18773">
        <ele>710</ele>
        <time>2020-04-24T20:10:02.42Z</time>
      </trkpt>
      <trkpt lat="44.84999" lon="5.18765">
        <ele>711</ele>
        <time>2020-04-24T20:10:17.18Z</time>
      </trkpt>
      <trkpt lat="44.85023" lon="5.18759">
        <ele>715</ele>
        <time>2020-04-24T20:10:59.14Z</time>
      </trkpt>
      <trkpt lat="44.85056" lon="5.18738">
        <ele>721</ele>
        <time>2020-04-24T20:11:59.74Z</time>
      </trkpt>
      <trkpt lat="44.8508" lon="5.18711">
        <ele>726</ele>
        <time>2020-04-24T20:12:48.24Z</time>
      </trkpt>
      <trkpt lat="44.85103" lon="5.18718">
        <ele>729</ele>
        <time>2020-04-24T20:13:26.71Z</time>
      </trkpt>
      <trkpt lat="44.85204" lon="5.18694">
        <ele>746</ele>
        <time>2020-04-24T20:16:21.19Z</time>
      </trkpt>
      <trkpt lat="44.85195" lon="5.18685">
        <ele>748</ele>
        <time>2020-04-24T20:16:38.49Z</time>
      </trkpt>
      <trkpt lat="44.85248" lon="5.18671">
        <ele>757</ele>
        <time>2020-04-24T20:18:10.17Z</time>
      </trkpt>
      <trkpt lat="44.85244" lon="5.18661">
        <ele>759</ele>
        <time>2020-04-24T20:18:24.69Z</time>
      </trkpt>
      <trkpt lat="44.85264" lon="5.18659">
        <ele>762</ele>
        <time>2020-04-24T20:19:02.30Z</time>
      </trkpt>
      <trkpt lat="44.85311" lon="5.18635">
        <ele>772</ele>
        <time>2020-04-24T20:20:35.94Z</time>
      </trkpt>
      <trkpt lat="44.85301" lon="5.1863">
        <ele>774</ele>
        <time>2020-04-24T20:20:55.17Z</time>
      </trkpt>
      <trkpt lat="44.85301" lon="5.18622">
        <ele>775</ele>
        <time>2020-04-24T20:21:06.17Z</time>
      </trkpt>
      <trkpt lat="44.85333" lon="5.18609">
        <ele>782</ele>
        <time>2020-04-24T20:22:10.63Z</time>
      </trkpt>
      <trkpt lat="44.85387" lon="5.18605">
        <ele>793</ele>
        <time>2020-04-24T20:23:57.11Z</time>
      </trkpt>
      <trkpt lat="44.85466" lon="5.18572">
        <ele>812</ele>
        <time>2020-04-24T20:26:54.56Z</time>
      </trkpt>
      <trkpt lat="44.8546" lon="5.18569">
        <ele>813</ele>
        <time>2020-04-24T20:27:06.86Z</time>
      </trkpt>
      <trkpt lat="44.85498" lon="5.18533">
        <ele>825</ele>
        <time>2020-04-24T20:28:49.10Z</time>
      </trkpt>
      <trkpt lat="44.85531" lon="5.18518">
        <ele>833</ele>
        <time>2020-04-24T20:30:08.10Z</time>
      </trkpt>
      <trkpt lat="44.85522" lon="5.18515">
        <ele>836</ele>
        <time>2020-04-24T20:30:29.01Z</time>
      </trkpt>
      <trkpt lat="44.85546" lon="5.18498">
        <ele>843</ele>
        <time>2020-04-24T20:31:30.37Z</time>
      </trkpt>
      <trkpt lat="44.85581" lon="5.18459">
        <ele>854</ele>
        <time>2020-04-24T20:33:09.80Z</time>
      </trkpt>
      <trkpt lat="44.85666" lon="5.1842">
        <ele>876</ele>
        <time>2020-04-24T20:36:18.39Z</time>
      </trkpt>
      <trkpt lat="44.85666" lon="5.18412">
        <ele>877</ele>
        <time>2020-04-24T20:36:30.94Z</time>
      </trkpt>
      <trkpt lat="44.85606" lon="5.18374">
        <ele>892</ele>
        <time>2020-04-24T20:38:45.03Z</time>
      </trkpt>
      <trkpt lat="44.8557" lon="5.1837">
        <ele>900</ele>
        <time>2020-04-24T20:39:57.63Z</time>
      </trkpt>
      <trkpt lat="44.85675" lon="5.18288">
        <ele>927</ele>
        <time>2020-04-24T20:44:07.04Z</time>
      </trkpt>
      <trkpt lat="44.85718" lon="5.1827">
        <ele>938</ele>
        <time>2020-04-24T20:45:44.43Z</time>
      </trkpt>
      <trkpt lat="44.85747" lon="5.18245">
        <ele>946</ele>
        <time>2020-04-24T20:46:54.10Z</time>
      </trkpt>
      <trkpt lat="44.85819" lon="5.18199">
        <ele>964</ele>
        <time>2020-04-24T20:49:27.03Z</time>
      </trkpt>
      <trkpt lat="44.8586" lon="5.18158">
        <ele>973</ele>
        <time>2020-04-24T20:50:46.05Z</time>
      </trkpt>
      <trkpt lat="44.85896" lon="5.18137">
        <ele>977</ele>
        <time>2020-04-24T20:51:36.93Z</time>
      </trkpt>
      <trkpt lat="44.85984" lon="5.18125">
        <ele>985</ele>
        <time>2020-04-24T20:53:32.40Z</time>
      </trkpt>
      <trkpt lat="44.85994" lon="5.18116">
        <ele>986</ele>
        <time>2020-04-24T20:53:47.98Z</time>
      </trkpt>
      <trkpt lat="44.86026" lon="5.18129">
        <ele>990</ele>
        <time>2020-04-24T20:54:34.96Z</time>
      </trkpt>
      <trkpt lat="44.86033" lon="5.18125">
        <ele>991</ele>
        <time>2020-04-24T20:54:46.05Z</time>
      </trkpt>
      <trkpt lat="44.86117" lon="5.18161">
        <ele>1001</ele>
        <time>2020-04-24T20:56:45.41Z</time>
      </trkpt>
      <trkpt lat="44.86142" lon="5.18157">
        <ele>1003</ele>
        <time>2020-04-24T20:57:15.35Z</time>
      </trkpt>
      <trkpt lat="44.86153" lon="5.1815">
        <ele>1004</ele>
        <time>2020-04-24T20:57:30.22Z</time>
      </trkpt>
      <trkpt lat="44.86195" lon="5.18161">
        <ele>1005</ele>
        <time>2020-04-24T20:58:18.08Z</time>
      </trkpt>
      <trkpt lat="44.86213" lon="5.18171">
        <ele>1005</ele>
        <time>2020-04-24T20:58:39.06Z</time>
      </trkpt>
      <trkpt lat="44.86231" lon="5.18192">
        <ele>1003</ele>
        <time>2020-04-24T20:59:07.01Z</time>
      </trkpt>
      <trkpt lat="44.86315" lon="5.18197">
        <ele>994</ele>
        <time>2020-04-24T21:00:48.81Z</time>
      </trkpt>
      <trkpt lat="44.86319" lon="5.18207">
        <ele>993</ele>
        <time>2020-04-24T21:00:58.45Z</time>
      </trkpt>
      <trkpt lat="44.8626" lon="5.18255">
        <ele>984</ele>
        <time>2020-04-24T21:02:23.62Z</time>
      </trkpt>
      <trkpt lat="44.86218" lon="5.18281">
        <ele>977</ele>
        <time>2020-04-24T21:03:21.70Z</time>
      </trkpt>
      <trkpt lat="44.86193" lon="5.18323">
        <ele>971</ele>
        <time>2020-04-24T21:04:14.03Z</time>
      </trkpt>
      <trkpt lat="44.86219" lon="5.18326">
        <ele>966</ele>
        <time>2020-04-24T21:04:50.52Z</time>
      </trkpt>
      <trkpt lat="44.86276" lon="5.18343">
        <ele>956</ele>
        <time>2020-04-24T21:06:16.26Z</time>
      </trkpt>
      <trkpt lat="44.86361" lon="5.18389">
        <ele>936</ele>
        <time>2020-04-24T21:08:37.11Z</time>
      </trkpt>
      <trkpt lat="44.86453" lon="5.18472">
        <ele>912</ele>
        <time>2020-04-24T21:11:31.18Z</time>
      </trkpt>
      <trkpt lat="44.86511" lon="5.1849">
        <ele>897</ele>
        <time>2020-04-24T21:13:16.34Z</time>
      </trkpt>
      <trkpt lat="44.86601" lon="5.18556">
        <ele>868</ele>
        <time>2020-04-24T21:16:25.63Z</time>
      </trkpt>
      <trkpt lat="44.86625" lon="5.186">
        <ele>856</ele>
        <time>2020-04-24T21:17:38.05Z</time>
      </trkpt>
      <trkpt lat="44.86635" lon="5.18635">
        <ele>849</ele>
        <time>2020-04-24T21:18:24.63Z</time>
      </trkpt>
      <trkpt lat="44.86657" lon="5.18666">
        <ele>841</ele>
        <time>2020-04-24T21:19:13.14Z</time>
      </trkpt>
      <trkpt lat="44.8669" lon="5.1868">
        <ele>834</ele>
        <time>2020-04-24T21:20:00.84Z</time>
      </trkpt>
      <trkpt lat="44.86728" lon="5.18688">
        <ele>828</ele>
        <time>2020-04-24T21:20:47.23Z</time>
      </trkpt>
      <trkpt lat="44.86772" lon="5.18684">
        <ele>824</ele>
        <time>2020-04-24T21:21:38.13Z</time>
      </trkpt>
      <trkpt lat="44.86778" lon="5.18665">
        <ele>823</ele>
        <time>2020-04-24T21:21:54.52Z</time>
      </trkpt>
      <trkpt lat="44.86791" lon="5.18658">
        <ele>822</ele>
        <time>2020-04-24T21:22:10.38Z</time>
      </trkpt>
      <trkpt lat="44.86818" lon="5.18679">
        <ele>820</ele>
        <time>2020-04-24T21:22:44.48Z</time>
      </trkpt>
      <trkpt lat="44.86888" lon="5.18687">
        <ele>817</ele>
        <time>2020-04-24T21:24:02.89Z</time>
      </trkpt>
      <trkpt lat="44.86948" lon="5.18719">
        <ele>815</ele>
        <time>2020-04-24T21:25:14.36Z</time>
      </trkpt>
      <trkpt lat="44.86983" lon="5.18755">
        <ele>814</ele>
        <time>2020-04-24T21:26:02.45Z</time>
      </trkpt>
      <trkpt lat="44.87055" lon="5.18792">
        <ele>813</ele>
        <time>2020-04-24T21:27:27.14Z</time>
      </trkpt>
      <trkpt lat="44.87055" lon="5.18818">
        <ele>814</ele>
        <time>2020-04-24T21:27:47.45Z</time>
      </trkpt>
      <trkpt lat="44.87035" lon="5.18835">
        <ele>814</ele>
        <time>2020-04-24T21:28:13.85Z</time>
      </trkpt>
      <trkpt lat="44.87039" lon="5.18856">
        <ele>815</ele>
        <time>2020-04-24T21:28:32.01Z</time>
      </trkpt>
      <trkpt lat="44.87069" lon="5.18889">
        <ele>816</ele>
        <time>2020-04-24T21:29:19.06Z</time>
      </trkpt>
      <trkpt lat="44.87126" lon="5.18897">
        <ele>821</ele>
        <time>2020-04-24T21:30:33.90Z</time>
      </trkpt>
      <trkpt lat="44.87176" lon="5.18897">
        <ele>826</ele>
        <time>2020-04-24T21:31:38.03Z</time>
      </trkpt>
      <trkpt lat="44.87239" lon="5.18875">
        <ele>831</ele>
        <time>2020-04-24T21:32:57.46Z</time>
      </trkpt>
      <trkpt lat="44.87268" lon="5.18846">
        <ele>832</ele>
        <time>2020-04-24T21:33:39.38Z</time>
      </trkpt>
      <trkpt lat="44.87284" lon="5.18838">
        <ele>833</ele>
        <time>2020-04-24T21:33:59.17Z</time>
      </trkpt>
      <trkpt lat="44.87283" lon="5.18848">
        <ele>833</ele>
        <time>2020-04-24T21:34:06.83Z</time>
      </trkpt>
      <trkpt lat="44.87326" lon="5.18874">
        <ele>832</ele>
        <time>2020-04-24T21:34:59.15Z</time>
      </trkpt>
      <trkpt lat="44.87358" lon="5.18878">
        <ele>831</ele>
        <time>2020-04-24T21:35:34.61Z</time>
      </trkpt>
      <trkpt lat="44.87456" lon="5.1892">
        <ele>828</ele>
        <time>2020-04-24T21:37:28.80Z</time>
      </trkpt>
      <trkpt lat="44.87479" lon="5.18921">
        <ele>828</ele>
        <time>2020-04-24T21:37:54.62Z</time>
      </trkpt>
      <trkpt lat="44.87486" lon="5.18939">
        <ele>828</ele>
        <time>2020-04-24T21:38:11.18Z</time>
      </trkpt>
      <trkpt lat="44.87486" lon="5.18948">
        <ele>828</ele>
        <time>2020-04-24T21:38:19.19Z</time>
      </trkpt>
      <trkpt lat="44.87423" lon="5.19008">
        <ele>830</ele>
        <time>2020-04-24T21:39:55.02Z</time>
      </trkpt>
      <trkpt lat="44.87249" lon="5.19106">
        <ele>847</ele>
        <time>2020-04-24T21:43:54.39Z</time>
      </trkpt>
      <trkpt lat="44.87151" lon="5.19116">
        <ele>854</ele>
        <time>2020-04-24T21:45:56.06Z</time>
      </trkpt>
      <trkpt lat="44.87115" lon="5.19128">
        <ele>855</ele>
        <time>2020-04-24T21:46:38.37Z</time>
      </trkpt>
      <trkpt lat="44.87016" lon="5.19119">
        <ele>858</ele>
        <time>2020-04-24T21:48:31.50Z</time>
      </trkpt>
      <trkpt lat="44.86928" lon="5.19089">
        <ele>857</ele>
        <time>2020-04-24T21:50:12.25Z</time>
      </trkpt>
      <trkpt lat="44.86851" lon="5.19084">
        <ele>851</ele>
        <time>2020-04-24T21:51:39.13Z</time>
      </trkpt>
      <trkpt lat="44.86773" lon="5.19102">
        <ele>846</ele>
        <time>2020-04-24T21:53:06.84Z</time>
      </trkpt>
      <trkpt lat="44.86724" lon="5.19144">
        <ele>849</ele>
        <time>2020-04-24T21:54:19.77Z</time>
      </trkpt>
      <trkpt lat="44.86722" lon="5.19165">
        <ele>851</ele>
        <time>2020-04-24T21:54:39.40Z</time>
      </trkpt>
      <trkpt lat="44.86709" lon="5.19177">
        <ele>853</ele>
        <time>2020-04-24T21:55:00.68Z</time>
      </trkpt>
      <trkpt lat="44.86652" lon="5.19164">
        <ele>858</ele>
        <time>2020-04-24T21:56:12.06Z</time>
      </trkpt>
      <trkpt lat="44.86617" lon="5.19141">
        <ele>859</ele>
        <time>2020-04-24T21:57:01.72Z</time>
      </trkpt>
      <trkpt lat="44.86515" lon="5.19089">
        <ele>835</ele>
        <time>2020-04-24T21:59:58.31Z</time>
      </trkpt>
      <trkpt lat="44.86527" lon="5.19045">
        <ele>825</ele>
        <time>2020-04-24T22:00:57.90Z</time>
      </trkpt>
      <trkpt lat="44.86545" lon="5.18963">
        <ele>809</ele>
        <time>2020-04-24T22:02:18.43Z</time>
      </trkpt>
      <trkpt lat="44.86622" lon="5.18938">
        <ele>802</ele>
        <time>2020-04-24T22:03:46.23Z</time>
      </trkpt>
      <trkpt lat="44.86636" lon="5.1895">
        <ele>801</ele>
        <time>2020-04-24T22:04:05.27Z</time>
      </trkpt>
      <trkpt lat="44.867" lon="5.18984">
        <ele>799</ele>
        <time>2020-04-24T22:05:21.24Z</time>
      </trkpt>
      <trkpt lat="44.86706" lon="5.18964">
        <ele>798</ele>
        <time>2020-04-24T22:05:38.69Z</time>
      </trkpt>
      <trkpt lat="44.86685" lon="5.18919">
        <ele>795</ele>
        <time>2020-04-24T22:06:22.01Z</time>
      </trkpt>
      <trkpt lat="44.86649" lon="5.18884">
        <ele>792</ele>
        <time>2020-04-24T22:07:11.71Z</time>
      </trkpt>
      <trkpt lat="44.86622" lon="5.18873">
        <ele>790</ele>
        <time>2020-04-24T22:07:43.51Z</time>
      </trkpt>
      <trkpt lat="44.86587" lon="5.18886">
        <ele>788</ele>
        <time>2020-04-24T22:08:23.37Z</time>
      </trkpt>
      <trkpt lat="44.86501" lon="5.18868">
        <ele>788</ele>
        <time>2020-04-24T22:10:01.13Z</time>
      </trkpt>
      <trkpt lat="44.86483" lon="5.1886">
        <ele>789</ele>
        <time>2020-04-24T22:10:22.26Z</time>
      </trkpt>
      <trkpt lat="44.86442" lon="5.18882">
        <ele>789</ele>
        <time>2020-04-24T22:11:10.61Z</time>
      </trkpt>
      <trkpt lat="44.8643" lon="5.18896">
        <ele>790</ele>
        <time>2020-04-24T22:11:27.90Z</time>
      </trkpt>
      <trkpt lat="44.86424" lon="5.18912">
        <ele>789</ele>
        <time>2020-04-24T22:11:42.49Z</time>
      </trkpt>
      <trkpt lat="44.86391" lon="5.18946">
        <ele>788</ele>
        <time>2020-04-24T22:12:27.98Z</time>
      </trkpt>
      <trkpt lat="44.86365" lon="5.18978">
        <ele>786</ele>
        <time>2020-04-24T22:13:07.51Z</time>
      </trkpt>
      <trkpt lat="44.8635" lon="5.18986">
        <ele>784</ele>
        <time>2020-04-24T22:13:26.61Z</time>
      </trkpt>
      <trkpt lat="44.86326" lon="5.18945">
        <ele>781</ele>
        <time>2020-04-24T22:14:08.77Z</time>
      </trkpt>
      <trkpt lat="44.86294" lon="5.18912">
        <ele>779</ele>
        <time>2020-04-24T22:14:52.91Z</time>
      </trkpt>
      <trkpt lat="44.86255" lon="5.18892">
        <ele>777</ele>
        <time>2020-04-24T22:15:39.02Z</time>
      </trkpt>
      <trkpt lat="44.86202" lon="5.18881">
        <ele>777</ele>
        <time>2020-04-24T22:16:38.49Z</time>
      </trkpt>
      <trkpt lat="44.86179" lon="5.18888">
        <ele>777</ele>
        <time>2020-04-24T22:17:04.62Z</time>
      </trkpt>
      <trkpt lat="44.86124" lon="5.18999">
        <ele>773</ele>
        <time>2020-04-24T22:18:51.96Z</time>
      </trkpt>
      <trkpt lat="44.86097" lon="5.19017">
        <ele>771</ele>
        <time>2020-04-24T22:19:27.03Z</time>
      </trkpt>
      <trkpt lat="44.86089" lon="5.19017">
        <ele>770</ele>
        <time>2020-04-24T22:19:35.42Z</time>
      </trkpt>
      <trkpt lat="44.85962" lon="5.18922">
        <ele>756</ele>
        <time>2020-04-24T22:22:23.28Z</time>
      </trkpt>
      <trkpt lat="44.85922" lon="5.1889">
        <ele>753</ele>
        <time>2020-04-24T22:23:15.56Z</time>
      </trkpt>
      <trkpt lat="44.85888" lon="5.18882">
        <ele>750</ele>
        <time>2020-04-24T22:23:55.34Z</time>
      </trkpt>
      <trkpt lat="44.85845" lon="5.18899">
        <ele>746</ele>
        <time>2020-04-24T22:24:48.56Z</time>
      </trkpt>
      <trkpt lat="44.85801" lon="5.18937">
        <ele>740</ele>
        <time>2020-04-24T22:25:49.77Z</time>
      </trkpt>
      <trkpt lat="44.85755" lon="5.19005">
        <ele>734</ele>
        <time>2020-04-24T22:27:04.89Z</time>
      </trkpt>
      <trkpt lat="44.8574" lon="5.19013">
        <ele>733</ele>
        <time>2020-04-24T22:27:23.22Z</time>
      </trkpt>
      <trkpt lat="44.85697" lon="5.19012">
        <ele>731</ele>
        <time>2020-04-24T22:28:11.42Z</time>
      </trkpt>
      <trkpt lat="44.85681" lon="5.19023">
        <ele>730</ele>
        <time>2020-04-24T22:28:31.61Z</time>
      </trkpt>
      <trkpt lat="44.85668" lon="5.19039">
        <ele>730</ele>
        <time>2020-04-24T22:28:50.55Z</time>
      </trkpt>
      <trkpt lat="44.85636" lon="5.19153">
        <ele>732</ele>
        <time>2020-04-24T22:30:30.25Z</time>
      </trkpt>
      <trkpt lat="44.8561" lon="5.19172">
        <ele>732</ele>
        <time>2020-04-24T22:31:02.74Z</time>
      </trkpt>
      <trkpt lat="44.85593" lon="5.19181">
        <ele>731</ele>
        <time>2020-04-24T22:31:23.55Z</time>
      </trkpt>
      <trkpt lat="44.85551" lon="5.19152">
        <ele>727</ele>
        <time>2020-04-24T22:32:21.03Z</time>
      </trkpt>
      <trkpt lat="44.85494" lon="5.19103">
        <ele>716</ele>
        <time>2020-04-24T22:33:55.89Z</time>
      </trkpt>
      <trkpt lat="44.85427" lon="5.19083">
        <ele>701</ele>
        <time>2020-04-24T22:35:32.24Z</time>
      </trkpt>
      <trkpt lat="44.85301" lon="5.19075">
        <ele>680</ele>
        <time>2020-04-24T22:38:09.66Z</time>
      </trkpt>
      <trkpt lat="44.85294" lon="5.19081">
        <ele>680</ele>
        <time>2020-04-24T22:38:19.07Z</time>
      </trkpt>
      <trkpt lat="44.85287" lon="5.19106">
        <ele>679</ele>
        <time>2020-04-24T22:38:41.02Z</time>
      </trkpt>
      <trkpt lat="44.85306" lon="5.19092">
        <ele>680</ele>
        <time>2020-04-24T22:39:08.30Z</time>
      </trkpt>
      <trkpt lat="44.85312" lon="5.19101">
        <ele>681</ele>
        <time>2020-04-24T22:39:18.86Z</time>
      </trkpt>
      <trkpt lat="44.85298" lon="5.19127">
        <ele>684</ele>
        <time>2020-04-24T22:39:58.57Z</time>
      </trkpt>
      <trkpt lat="44.85316" lon="5.19129">
        <ele>687</ele>
        <time>2020-04-24T22:40:29.45Z</time>
      </trkpt>
      <trkpt lat="44.85309" lon="5.19176">
        <ele>694</ele>
        <time>2020-04-24T22:41:34.94Z</time>
      </trkpt>
      <trkpt lat="44.85313" lon="5.19206">
        <ele>698</ele>
        <time>2020-04-24T22:42:13.43Z</time>
      </trkpt>
      <trkpt lat="44.85312" lon="5.1923">
        <ele>702</ele>
        <time>2020-04-24T22:42:44.25Z</time>
      </trkpt>
      <trkpt lat="44.85289" lon="5.19272">
        <ele>708</ele>
        <time>2020-04-24T22:43:29.46Z</time>
      </trkpt>
      <trkpt lat="44.85277" lon="5.19288">
        <ele>710</ele>
        <time>2020-04-24T22:43:48.84Z</time>
      </trkpt>
      <trkpt lat="44.85199" lon="5.1934">
        <ele>708</ele>
        <time>2020-04-24T22:45:26.85Z</time>
      </trkpt>
      <trkpt lat="44.85133" lon="5.19356">
        <ele>699</ele>
        <time>2020-04-24T22:46:48.87Z</time>
      </trkpt>
      <trkpt lat="44.85085" lon="5.19346">
        <ele>693</ele>
        <time>2020-04-24T22:47:47.38Z</time>
      </trkpt>
      <trkpt lat="44.85043" lon="5.19353">
        <ele>688</ele>
        <time>2020-04-24T22:48:37.98Z</time>
      </trkpt>
      <trkpt lat="44.84919" lon="5.19304">
        <ele>676</ele>
        <time>2020-04-24T22:51:07.58Z</time>
      </trkpt>
      <trkpt lat="44.84876" lon="5.19294">
        <ele>672</ele>
        <time>2020-04-24T22:51:57.30Z</time>
      </trkpt>
      <trkpt lat="44.84857" lon="5.19273">
        <ele>671</ele>
        <time>2020-04-24T22:52:24.37Z</time>
      </trkpt>
      <trkpt lat="44.84839" lon="5.19183">
        <ele>667</ele>
        <time>2020-04-24T22:53:39.24Z</time>
      </trkpt>
      <trkpt lat="44.8481" lon="5.19212">
        <ele>665</ele>
        <time>2020-04-24T22:54:18.29Z</time>
      </trkpt>
      <trkpt lat="44.84792" lon="5.19223">
        <ele>665</ele>
        <time>2020-04-24T22:54:40.74Z</time>
      </trkpt>
      <trkpt lat="44.84745" lon="5.19219">
        <ele>664</ele>
        <time>2020-04-24T22:55:32.85Z</time>
      </trkpt>
      <trkpt lat="44.84702" lon="5.19243">
        <ele>661</ele>
        <time>2020-04-24T22:56:26.70Z</time>
      </trkpt>
      <trkpt lat="44.84691" lon="5.19256">
        <ele>660</ele>
        <time>2020-04-24T22:56:43.59Z</time>
      </trkpt>
      <trkpt lat="44.84615" lon="5.19287">
        <ele>651</ele>
        <time>2020-04-24T22:58:19.04Z</time>
      </trkpt>
      <trkpt lat="44.84585" lon="5.19318">
        <ele>646</ele>
        <time>2020-04-24T22:59:06.54Z</time>
      </trkpt>
      <trkpt lat="44.84573" lon="5.19333">
        <ele>643</ele>
        <time>2020-04-24T22:59:26.85Z</time>
      </trkpt>
      <trkpt lat="44.84562" lon="5.19326">
        <ele>641</ele>
        <time>2020-04-24T22:59:42.65Z</time>
      </trkpt>
      <trkpt lat="44.84562" lon="5.19282">
        <ele>636</ele>
        <time>2020-04-24T23:00:22.21Z</time>
      </trkpt>
      <trkpt lat="44.84551" lon="5.19272">
        <ele>634</ele>
        <time>2020-04-24T23:00:39Z</time>
      </trkpt>
      <trkpt lat="44.84537" lon="5.19285">
        <ele>632</ele>
        <time>2020-04-24T23:00:59.09Z</time>
      </trkpt>
      <trkpt lat="44.84523" lon="5.1933">
        <ele>628</ele>
        <time>2020-04-24T23:01:40.12Z</time>
      </trkpt>
      <trkpt lat="44.84524" lon="5.19351">
        <ele>626</ele>
        <time>2020-04-24T23:01:57.90Z</time>
      </trkpt>
      <trkpt lat="44.84564" lon="5.19399">
        <ele>622</ele>
        <time>2020-04-24T23:02:57.42Z</time>
      </trkpt>
      <trkpt lat="44.84558" lon="5.19401">
        <ele>622</ele>
        <time>2020-04-24T23:03:04.08Z</time>
      </trkpt>
      <trkpt lat="44.84545" lon="5.19385">
        <ele>621</ele>
        <time>2020-04-24T23:03:23.33Z</time>
      </trkpt>
      <trkpt lat="44.84519" lon="5.19371">
        <ele>620</ele>
        <time>2020-04-24T23:03:54.45Z</time>
      </trkpt>
      <trkpt lat="44.84502" lon="5.19326">
        <ele>619</ele>
        <time>2020-04-24T23:04:34.17Z</time>
      </trkpt>
      <trkpt lat="44.84498" lon="5.19334">
        <ele>619</ele>
        <time>2020-04-24T23:04:41.48Z</time>
      </trkpt>
      <trkpt lat="44.84514" lon="5.19377">
        <ele>620</ele>
        <time>2020-04-24T23:05:20.94Z</time>
      </trkpt>
      <trkpt lat="44.84533" lon="5.19395">
        <ele>620</ele>
        <time>2020-04-24T23:05:48.46Z</time>
      </trkpt>
      <trkpt lat="44.84514" lon="5.19388">
        <ele>621</ele>
        <time>2020-04-24T23:06:12.18Z</time>
      </trkpt>
      <trkpt lat="44.84478" lon="5.19337">
        <ele>625</ele>
        <time>2020-04-24T23:07:17.52Z</time>
      </trkpt>
      <trkpt lat="44.8446" lon="5.19323">
        <ele>627</ele>
        <time>2020-04-24T23:07:43.87Z</time>
      </trkpt>
      <trkpt lat="44.84434" lon="5.19323">
        <ele>630</ele>
        <time>2020-04-24T23:08:22.59Z</time>
      </trkpt>
      <trkpt lat="44.84433" lon="5.19331">
        <ele>630</ele>
        <time>2020-04-24T23:08:31.35Z</time>
      </trkpt>
      <trkpt lat="44.84465" lon="5.19343">
        <ele>635</ele>
        <time>2020-04-24T23:09:24.41Z</time>
      </trkpt>
      <trkpt lat="44.84476" lon="5.19362">
        <ele>638</ele>
        <time>2020-04-24T23:09:54.88Z</time>
      </trkpt>
      <trkpt lat="44.84475" lon="5.1937">
        <ele>639</ele>
        <time>2020-04-24T23:10:06.24Z</time>
      </trkpt>
      <trkpt lat="44.84447" lon="5.19349">
        <ele>645</ele>
        <time>2020-04-24T23:11:08.03Z</time>
      </trkpt>
      <trkpt lat="44.84417" lon="5.19345">
        <ele>652</ele>
        <time>2020-04-24T23:12:14.84Z</time>
      </trkpt>
      <trkpt lat="44.84412" lon="5.19364">
        <ele>655</ele>
        <time>2020-04-24T23:12:48.55Z</time>
      </trkpt>
      <trkpt lat="44.84366" lon="5.19333">
        <ele>669</ele>
        <time>2020-04-24T23:14:54.63Z</time>
      </trkpt>
      <trkpt lat="44.84341" lon="5.19324">
        <ele>676</ele>
        <time>2020-04-24T23:15:41.82Z</time>
      </trkpt>
      <trkpt lat="44.84328" lon="5.19308">
        <ele>680</ele>
        <time>2020-04-24T23:16:13.69Z</time>
      </trkpt>
      <trkpt lat="44.84321" lon="5.19254">
        <ele>685</ele>
        <time>2020-04-24T23:16:59.82Z</time>
      </trkpt>
      <trkpt lat="44.84233" lon="5.19137">
        <ele>664</ele>
        <time>2020-04-24T23:20:20.40Z</time>
      </trkpt>
      <trkpt lat="44.84224" lon="5.19113">
        <ele>657</ele>
        <time>2020-04-24T23:20:51.78Z</time>
      </trkpt>
      <trkpt lat="44.84217" lon="5.19054">
        <ele>640</ele>
        <time>2020-04-24T23:22:36.13Z</time>
      </trkpt>
      <trkpt lat="44.84226" lon="5.19">
        <ele>626</ele>
        <time>2020-04-24T23:23:56.95Z</time>
      </trkpt>
      <trkpt lat="44.84226" lon="5.18964">
        <ele>619</ele>
        <time>2020-04-24T23:24:38.63Z</time>
      </trkpt>
      <trkpt lat="44.84209" lon="5.18921">
        <ele>612</ele>
        <time>2020-04-24T23:25:22.70Z</time>
      </trkpt>
      <trkpt lat="44.84194" lon="5.18902">
        <ele>609</ele>
        <time>2020-04-24T23:25:49.15Z</time>
      </trkpt>
      <trkpt lat="44.8416" lon="5.1889">
        <ele>605</ele>
        <time>2020-04-24T23:26:29.12Z</time>
      </trkpt>
      <trkpt lat="44.84123" lon="5.18898">
        <ele>603</ele>
        <time>2020-04-24T23:27:11.04Z</time>
      </trkpt>
      <trkpt lat="44.84073" lon="5.18937">
        <ele>603</ele>
        <time>2020-04-24T23:28:15.70Z</time>
      </trkpt>
      <trkpt lat="44.84031" lon="5.18944">
        <ele>604</ele>
        <time>2020-04-24T23:29:11.76Z</time>
      </trkpt>
      <trkpt lat="44.84011" lon="5.18939">
        <ele>606</ele>
        <time>2020-04-24T23:29:37.65Z</time>
      </trkpt>
      <trkpt lat="44.8395" lon="5.18887">
        <ele>616</ele>
        <time>2020-04-24T23:31:34.90Z</time>
      </trkpt>
      <trkpt lat="44.83906" lon="5.18887">
        <ele>624</ele>
        <time>2020-04-24T23:32:48.18Z</time>
      </trkpt>
      <trkpt lat="44.83883" lon="5.18896">
        <ele>627</ele>
        <time>2020-04-24T23:33:14.25Z</time>
      </trkpt>
      <trkpt lat="44.83866" lon="5.18894">
        <ele>627</ele>
        <time>2020-04-24T23:33:33.73Z</time>
      </trkpt>
      <trkpt lat="44.83844" lon="5.18865">
        <ele>623</ele>
        <time>2020-04-24T23:34:49.19Z</time>
      </trkpt>
      <trkpt lat="44.83827" lon="5.18791">
        <ele>594</ele>
        <time>2020-04-24T23:37:55.62Z</time>
      </trkpt>
    </trkseg>
  </trk>
</gpx>